Latest Weather Observations for Port Augusta

IDS60801

Issued at 6:01 pm CDT Tuesday 9 February 2016 (issued every 30 minutes, with the page automatically refreshed every 10 minutes)

About weather observations | Map of weather stations | Latest weather observations for SA | Other Formats
Station Details ID: 018201 Name: PORT AUGUSTA AERO Lat: -32.51 Lon: 137.72 Height: 13.97 m
Data from the previous 72 hours. | See also: Recent months at Port Augusta
Date/Time
CDT
Temp
°C
App
Temp
°C
Dew
Point
Rel
Hum
%
Delta-T
°C
Wind Press
QNH
hPa
Press
MSL
hPa
Rain
since 9 am
mm
Dir
 
Spd
km/h
Gust
km/h
Spd
kts
Gust
kts
09/06:00pm 35.2 29.4 9.6 21 14.7 SE 30 37 16 20 1012.3 1012.2 0.0
09/05:30pm 35.1 30.1 10.9 23 14.2 SE 28 35 15 19 1012.4 1012.3 0.0
09/05:00pm 35.2 29.2 10.9 23 14.3 SSE 33 39 18 21 1012.5 1012.4 0.0
09/04:30pm 35.3 29.9 11.0 23 14.3 SE 30 37 16 20 1012.8 1012.7 0.0
09/04:00pm 36.1 31.7 11.7 23 14.5 SE 26 32 14 17 1013.1 1013.0 0.0
09/03:30pm 36.9 33.1 11.0 21 15.3 SE 22 30 12 16 1013.5 1013.4 0.0
09/03:00pm 35.7 32.3 12.6 25 13.9 SE 22 28 12 15 1014.0 1013.9 0.0
09/02:30pm 36.7 33.4 11.5 22 15.0 SE 20 28 11 15 1014.4 1014.3 0.0
09/02:00pm 36.1 33.2 12.3 24 14.3 ESE 19 24 10 13 1014.8 1014.7 0.0
09/01:30pm 35.6 32.8 11.3 23 14.4 ESE 17 22 9 12 1015.1 1015.0 0.0
09/01:00pm 34.7 32.2 11.2 24 13.8 ESE 15 20 8 11 1015.5 1015.4 0.0
09/12:30pm 33.2 30.5 11.7 27 12.7 SE 17 22 9 12 1015.9 1015.8 0.0
09/12:00pm 32.9 30.7 10.9 26 12.8 SE 13 20 7 11 1016.5 1016.4 0.0
09/11:30am 31.2 28.0 10.0 27 12.0 SE 17 22 9 12 1016.9 1016.8 0.0
09/11:00am 30.5 27.2 11.0 30 11.2 SE 19 26 10 14 1017.2 1017.1 0.0
09/10:30am 29.3 25.8 10.9 32 10.5 SE 20 28 11 15 1017.3 1017.2 0.0
09/10:00am 27.7 23.6 11.3 36 9.4 SE 24 30 13 16 1017.4 1017.3 0.0
09/09:30am 26.3 22.5 12.4 42 8.0 SSE 24 32 13 17 1017.6 1017.5 0.0
09/09:00am 25.3 22.8 14.1 50 6.6 SE 20 30 11 16 1017.8 1017.7 0.0
09/08:30am 24.8 21.2 11.7 44 7.4 SE 22 32 12 17 1017.7 1017.6 0.0
09/08:00am 23.1 21.2 14.1 57 5.3 SE 17 22 9 12 1017.5 1017.4 0.0
09/07:30am 20.5 20.8 14.4 68 3.5 S 6 9 3 5 1017.4 1017.3 0.0
09/07:00am 19.5 19.5 13.7 69 3.3 SSE 6 7 3 4 1017.4 1017.3 0.0
09/06:30am 18.8 18.2 13.4 71 3.1 S 9 15 5 8 1017.4 1017.3 0.0
09/06:00am 19.0 18.8 13.6 71 3.1 SSW 7 11 4 6 1017.2 1017.1 0.0
09/05:30am 19.8 19.0 15.0 74 2.8 SSE 13 15 7 8 1016.8 1016.7 0.0
09/05:00am 20.6 19.1 15.4 72 3.1 SSE 17 20 9 11 1016.7 1016.6 0.0
09/04:30am 20.7 18.7 15.0 70 3.4 SSE 19 26 10 14 1016.6 1016.5 0.0
09/04:00am 20.8 19.0 15.4 71 3.2 SSE 19 26 10 14 1016.7 1016.6 0.0
09/03:57am 20.8 19.0 15.4 71 3.2 SSE 19 26 10 14 1016.7 1016.6 0.0
09/03:38am 21.1 19.2 15.2 69 3.5 SSE 19 24 10 13 1016.8 1016.7 0.0
09/03:30am 21.1 18.9 15.0 68 3.6 SSE 20 24 11 13 1016.8 1016.7 0.0
09/03:00am 21.3 18.8 15.2 68 3.6 SSE 22 28 12 15 1016.9 1016.8 0.0
09/02:30am 21.0 19.1 15.3 70 3.4 SSE 19 22 10 12 1017.4 1017.3 0.0
09/02:00am 21.5 19.6 15.1 67 3.8 SSE 19 24 10 13 1017.7 1017.6 0.0
09/01:30am 21.8 19.7 14.7 64 4.2 SE 19 22 10 12 1017.9 1017.8 0.0
09/01:00am 22.4 20.7 13.5 57 5.1 SSE 15 22 8 12 1018.0 1017.9 0.0
09/12:30am 22.7 20.8 12.9 54 5.6 SSE 15 19 8 10 1018.2 1018.1 0.0
09/12:00am 23.2 20.6 13.1 53 5.8 SSE 19 26 10 14 1018.3 1018.2 0.0
 
Date/Time
CDT
Temp
°C
App
Temp
°C
Dew
Point
Rel
Hum
%
Delta-T
°C
Wind Press
QNH
hPa
Press
MSL
hPa
Rain
since 9 am
mm
Dir
 
Spd
km/h
Gust
km/h
Spd
kts
Gust
kts
08/11:30pm 23.1 21.1 13.8 55 5.4 S 17 24 9 13 1018.6 1018.5 0.0
08/11:00pm 24.0 20.3 13.8 53 6.0 SSE 26 37 14 20 1018.7 1018.6 0.0
08/10:30pm 24.8 21.8 12.4 46 7.1 S 20 26 11 14 1018.7 1018.6 0.0
08/10:00pm 25.3 21.8 13.5 48 6.9 S 24 43 13 23 1018.6 1018.5 0.0
08/09:30pm 25.9 21.6 13.1 45 7.5 SSE 28 39 15 21 1018.1 1018.0 0.0
08/09:00pm 26.8 22.6 12.5 41 8.3 SSE 26 35 14 19 1017.7 1017.6 0.0
08/08:30pm 25.6 23.8 15.9 55 5.9 SE 20 28 11 15 1017.3 1017.2 0.0
08/08:00pm 28.3 22.4 10.5 33 10.1 SSE 32 43 17 23 1016.8 1016.7 0.0
08/07:30pm 29.4 24.0 11.0 32 10.5 SSE 30 43 16 23 1016.7 1016.6 0.0
08/07:00pm 30.0 23.1 11.5 32 10.7 SSE 39 48 21 26 1016.3 1016.2 0.0
08/06:30pm 31.0 23.7 11.4 30 11.4 SSE 41 56 22 30 1016.0 1015.9 0.0
08/06:00pm 31.0 23.6 12.4 32 11.0 SSE 43 56 23 30 1015.8 1015.7 0.0
08/05:30pm 30.4 23.6 13.2 35 10.2 SSE 41 52 22 28 1016.1 1016.0 0.0
08/05:16pm 31.0 25.9 13.7 34 10.4 SE 33 52 18 28 1016.4 1016.3 0.0
08/05:00pm 30.5 26.3 16.1 41 9.0 SE 33 41 18 22 1016.6 1016.5 0.0
08/04:30pm 31.2 26.0 15.6 39 9.7 SE 37 46 20 25 1016.8 1016.7 0.0
08/04:00pm 30.3 25.0 15.2 40 9.3 SE 37 48 20 26 1017.0 1016.9 0.0
08/03:30pm 30.4 25.8 14.5 38 9.7 SE 32 44 17 24 1017.4 1017.3 0.0
08/03:00pm 30.7 26.2 14.8 38 9.7 SE 32 39 17 21 1017.7 1017.6 0.0
08/02:30pm 30.8 26.3 14.8 37 9.8 SE 32 43 17 23 1018.0 1017.9 0.0
08/02:00pm 31.0 26.7 15.4 38 9.6 SE 32 39 17 21 1018.4 1018.3 0.0
08/01:30pm 28.3 24.2 15.9 47 7.6 SE 32 43 17 23 1018.7 1018.6 0.0
08/01:00pm 26.7 22.6 16.0 52 6.6 SE 32 41 17 22 1019.0 1018.9 0.0
08/12:30pm 26.6 23.1 16.5 54 6.2 SE 30 39 16 21 1019.4 1019.3 0.0
08/12:11pm 27.0 23.2 16.6 53 6.4 SE 32 39 17 21 1019.6 1019.5 0.0
08/12:00pm 26.7 22.3 16.6 54 6.2 SE 35 44 19 24 1019.7 1019.6 0.0
08/11:30am 25.4 21.8 17.1 60 5.1 SE 32 41 17 22 1019.9 1019.8 0.0
08/11:00am 25.3 21.7 17.2 61 5.0 SE 32 41 17 22 1020.1 1020.0 0.0
08/10:30am 24.9 21.6 16.9 61 4.9 SE 30 39 16 21 1020.1 1020.0 0.0
08/10:00am 24.5 20.1 15.1 55 5.6 SE 32 41 17 22 1020.2 1020.1 0.0
08/09:30am 23.2 20.2 15.8 63 4.5 SE 26 35 14 19 1020.2 1020.1 0.0
08/09:00am 22.5 19.0 15.4 64 4.2 SE 28 35 15 19 1020.2 1020.1 0.0
08/08:30am 21.4 17.6 14.8 66 3.9 SE 28 33 15 18 1020.0 1019.9 0.0
08/08:00am 20.6 18.8 15.4 72 3.1 SSE 19 24 10 13 1020.0 1019.9 0.0
08/07:30am 19.0 16.8 15.9 82 1.8 SSE 22 28 12 15 1019.9 1019.8 0.0
08/07:00am 18.6 16.3 15.7 83 1.7 SSE 22 30 12 16 1019.8 1019.7 0.0
08/06:30am 18.8 15.4 15.7 82 1.8 S 28 33 15 18 1019.7 1019.6 0.0
08/06:00am 19.0 16.8 15.9 82 1.8 S 22 32 12 17 1019.4 1019.3 0.0
08/05:31am 19.3 16.4 16.2 82 1.9 SSE 26 35 14 19 1019.2 1019.1 0.0
08/05:30am 19.3 16.4 16.2 82 1.8 SSE 26 35 14 19 1019.1 1019.0 0.0
08/05:12am 19.5 16.6 16.2 81 2.0 SSE 26 33 14 18 1018.9 1018.8 0.0
08/05:00am 19.6 17.2 16.4 82 1.9 SSE 24 32 13 17 1018.8 1018.7 0.0
08/04:30am 19.7 18.0 16.2 80 2.1 SSE 20 28 11 15 1018.8 1018.7 0.0
08/04:00am 20.1 17.5 15.9 77 2.5 SSE 24 30 13 16 1018.7 1018.6 0.0
08/03:30am 20.3 18.9 15.5 74 2.8 SSE 17 30 9 16 1018.8 1018.7 0.0
08/03:00am 20.5 18.4 15.3 72 3.1 SSE 20 28 11 15 1018.8 1018.7 0.0
08/02:30am 20.5 18.7 15.5 73 3.0 SSE 19 32 10 17 1018.9 1018.8 0.0
08/02:00am 21.0 18.4 16.0 73 3.0 SSE 24 30 13 16 1018.9 1018.8 0.0
08/01:30am 21.5 18.8 14.6 65 4.0 SSE 22 28 12 15 1019.0 1018.9 0.0
08/01:00am 22.7 18.2 12.6 53 5.8 SSE 28 37 15 20 1019.0 1018.9 0.0
08/12:30am 22.4 20.8 16.4 69 3.6 SSW 20 28 11 15 1019.1 1019.0 0.0
08/12:00am 23.0 19.2 14.8 60 4.9 S 28 41 15 22 1019.1 1019.0 0.0
 
Date/Time
CDT
Temp
°C
App
Temp
°C
Dew
Point
Rel
Hum
%
Delta-T
°C
Wind Press
QNH
hPa
Press
MSL
hPa
Rain
since 9 am
mm
Dir
 
Spd
km/h
Gust
km/h
Spd
kts
Gust
kts
07/11:30pm 23.2 19.9 16.0 64 4.3 SSE 28 39 15 21 1018.9 1018.8 0.0
07/11:00pm 23.1 19.9 16.4 66 4.1 SSE 28 39 15 21 1018.7 1018.6 0.0
07/10:30pm 22.6 20.4 16.9 70 3.5 SE 24 30 13 16 1018.6 1018.5 0.0
07/10:00pm 22.5 20.0 17.0 71 3.4 SSE 26 37 14 20 1018.3 1018.2 0.0
07/09:30pm 22.8 20.3 17.0 70 3.6 SSE 26 33 14 18 1017.9 1017.8 0.0
07/09:00pm 23.1 20.5 16.9 68 3.8 SSE 26 37 14 20 1017.5 1017.4 0.0
07/08:30pm 23.7 21.0 16.5 64 4.4 SSE 26 33 14 18 1017.1 1017.0 0.0
07/08:00pm 24.2 21.0 18.2 69 3.8 SE 32 39 17 21 1016.6 1016.5 0.0
07/07:30pm 24.3 20.8 18.7 71 3.5 SE 35 46 19 25 1016.1 1016.0 0.0
07/07:00pm 26.5 22.9 18.6 62 5.0 SE 35 44 19 24 1015.5 1015.4 0.0
07/06:30pm 27.1 23.7 18.9 61 5.3 SE 35 43 19 23 1015.3 1015.2 0.0
07/06:00pm 29.0 24.2 16.5 46 7.8 SSE 37 48 20 26 1015.1 1015.0 0.0
07/05:30pm 30.1 25.1 16.1 42 8.7 SSE 37 46 20 25 1015.0 1014.9 0.0
07/05:00pm 30.0 25.7 16.8 45 8.3 SE 35 44 19 24 1014.9 1014.8 0.0
07/04:30pm 29.7 25.7 16.8 45 8.1 SE 33 44 18 24 1015.0 1014.9 0.0
07/04:00pm 29.4 25.0 16.6 46 8.0 SE 35 44 19 24 1015.2 1015.1 0.0
07/03:30pm 29.8 25.9 16.9 45 8.1 SE 33 43 18 23 1015.5 1015.4 0.0
07/03:00pm 29.9 26.0 17.0 45 8.1 SE 33 44 18 24 1015.5 1015.4 0.0
07/02:30pm 29.2 25.2 16.7 46 7.8 SE 33 43 18 23 1015.8 1015.7 0.0
07/02:00pm 29.2 25.2 16.7 46 7.8 SE 33 43 18 23 1015.9 1015.8 0.0
07/01:30pm 28.9 24.6 16.8 48 7.6 SE 35 46 19 25 1016.1 1016.0 0.0
07/01:00pm 28.4 25.1 17.0 50 7.1 SE 30 39 16 21 1016.3 1016.2 0.0
07/12:30pm 27.3 24.3 16.9 53 6.5 SE 28 37 15 20 1016.7 1016.6 0.0
07/12:00pm 27.0 24.3 17.5 56 6.0 SE 28 35 15 19 1016.8 1016.7 0.0
07/11:30am 25.9 23.9 17.3 59 5.4 SE 24 32 13 17 1017.1 1017.0 0.0
07/11:00am 24.7 22.4 17.7 65 4.4 SE 26 33 14 18 1017.3 1017.2 0.0
07/10:30am 24.2 20.9 17.0 64 4.4 SE 30 39 16 21 1017.4 1017.3 0.0
07/10:00am 23.7 20.0 17.0 66 4.1 SE 32 41 17 22 1017.3 1017.2 0.0
07/09:30am 23.1 19.8 17.1 69 3.7 SE 30 39 16 21 1017.4 1017.3 0.0
07/09:00am 22.3 18.5 17.2 73 3.1 SSE 33 43 18 23 1017.2 1017.1 0.0
07/08:30am 21.1 17.3 17.3 79 2.3 SSE 33 43 18 23 1016.9 1016.8 0.0
07/08:00am 20.2 17.4 17.4 84 1.7 SSE 28 35 15 19 1016.7 1016.6 0.0
07/07:30am 19.9 17.6 17.7 87 1.4 SE 26 33 14 18 1016.0 1015.9 0.0
07/07:00am 19.7 18.6 17.3 86 1.5 SSE 19 24 10 13 1015.6 1015.5 0.0
07/06:30am 20.3 18.9 17.1 82 1.9 SSE 20 28 11 15 1015.1 1015.0 0.0
07/06:00am 20.2 18.3 16.6 80 2.2 SSE 22 28 12 15 1014.6 1014.5 0.0
07/05:30am 20.5 18.1 16.5 78 2.4 SSE 24 32 13 17 1014.5 1014.4 0.0
07/05:00am 20.8 18.9 16.6 77 2.5 SSE 22 30 12 16 1014.4 1014.3 0.0
07/04:30am 21.4 21.0 16.1 72 3.2 SE 13 20 7 11 1014.5 1014.4 0.0
07/04:00am 22.2 20.5 14.8 63 4.4 SSW 17 24 9 13 1014.3 1014.2 0.0
07/03:30am 22.5 20.6 14.1 59 4.9 SSW 17 22 9 12 1014.1 1014.0 0.0
07/03:00am 22.3 17.7 16.1 68 3.7 SE 35 44 19 24 1013.5 1013.4 0.0
07/02:30am 22.2 18.1 16.0 68 3.7 SE 32 43 17 23 1013.8 1013.7 0.0
07/02:00am 23.2 17.8 15.0 60 4.9 SE 37 52 20 28 1013.8 1013.7 0.0
07/01:30am 22.8 19.3 16.4 67 3.9 SSE 30 39 16 21 1014.1 1014.0 0.0
07/01:00am 23.0 20.8 16.8 68 3.8 SSE 24 33 13 18 1014.6 1014.5 0.0
07/12:30am 23.2 19.7 17.4 70 3.6 SSE 32 39 17 21 1014.5 1014.4 0.0
07/12:00am 23.7 18.8 17.4 68 3.9 SSE 39 50 21 27 1014.2 1014.1 0.0
 
Date/Time
CDT
Temp
°C
App
Temp
°C
Dew
Point
Rel
Hum
%
Delta-T
°C
Wind Press
QNH
hPa
Press
MSL
hPa
Rain
since 9 am
mm
Dir
 
Spd
km/h
Gust
km/h
Spd
kts
Gust
kts
06/11:30pm 24.0 18.9 17.7 68 3.9 SE 41 54 22 29 1014.1 1014.0 0.0
06/11:00pm 24.3 18.9 17.8 67 4.1 SSE 43 54 23 29 1013.9 1013.8 0.0
06/10:30pm 24.0 18.8 17.5 67 4.0 SSE 41 57 22 31 1013.5 1013.4 0.0
06/10:00pm 23.7 19.0 17.7 69 3.7 SE 39 50 21 27 1013.3 1013.2 0.0
06/09:30pm 24.0 20.2 18.2 70 3.6 SE 35 48 19 26 1013.1 1013.0 0.0
06/09:00pm 23.7 20.2 18.8 74 3.1 SE 35 46 19 25 1012.9 1012.8 0.0
06/08:30pm 24.0 20.3 18.4 71 3.5 SE 35 46 19 25 1012.5 1012.4 0.0
06/08:00pm 24.6 20.4 18.8 70 3.7 SE 39 50 21 27 1012.1 1012.0 0.0
06/07:30pm 25.1 21.0 19.2 70 3.8 SE 39 52 21 28 1011.6 1011.5 0.0
06/07:00pm 26.3 22.8 18.7 63 4.9 SE 35 46 19 25 1011.2 1011.1 0.0
06/06:30pm 27.8 23.0 18.5 57 6.0 SE 41 50 22 27 1010.9 1010.8 0.0

Other Formats:

Comma delimited format used in spreadsheet applications
http://www.bom.gov.au/fwo/IDS60801/IDS60801.95666.axf

JavaScript Object Notation format (JSON) in row-major order
http://www.bom.gov.au/fwo/IDS60801/IDS60801.95666.json